createdAt,value
2023-03-11T00:00:47.573Z,99.90
2023-03-11T00:01:49.512Z,96.40
2023-03-11T00:02:52.837Z,98.60
2023-03-11T00:03:54.538Z,99.90
2023-03-11T00:04:56.227Z,96.90
2023-03-11T00:06:01.808Z,95.80
2023-03-11T00:07:07.176Z,93.90
2023-03-11T00:08:11.682Z,93.60
2023-03-11T00:09:13.386Z,93.50
2023-03-11T00:10:17.541Z,95.70
2023-03-11T00:11:19.842Z,94.10
2023-03-11T00:12:22.103Z,99.30
2023-03-11T00:13:24.076Z,93.10
2023-03-11T00:14:25.745Z,99.40
2023-03-11T00:15:28.699Z,95.60
2023-03-11T00:16:30.442Z,98.30
2023-03-11T00:17:32.148Z,99.50
2023-03-11T00:18:33.868Z,96.10
2023-03-11T00:19:35.590Z,98.90
2023-03-11T00:20:39.842Z,99.90
2023-03-11T00:21:41.657Z,99.90
2023-03-11T00:22:43.414Z,99.50
2023-03-11T00:23:45.517Z,97.60
2023-03-11T00:24:47.262Z,99.90
2023-03-11T00:25:49.137Z,99.90
2023-03-11T00:26:50.902Z,99.90
2023-03-11T00:27:52.837Z,99.90
2023-03-11T00:28:55.513Z,99.90
2023-03-11T00:29:57.276Z,99.90
2023-03-11T00:30:59.661Z,99.90
2023-03-11T00:32:01.450Z,99.90
2023-03-11T00:33:03.274Z,99.90
2023-03-11T00:34:05.021Z,99.90
2023-03-11T00:35:07.435Z,99.50
2023-03-11T00:36:25.199Z,99.90
2023-03-11T00:37:26.974Z,99.90
2023-03-11T00:38:28.825Z,99.90
2023-03-11T00:39:30.562Z,99.90
2023-03-11T00:40:34.115Z,99.90
2023-03-11T00:41:35.953Z,99.90
2023-03-11T00:42:37.749Z,99.90
2023-03-11T00:43:39.429Z,99.90
2023-03-11T00:44:41.091Z,99.90
2023-03-11T00:45:43.095Z,99.90
2023-03-11T00:46:44.855Z,99.90
2023-03-11T00:47:46.676Z,99.90
2023-03-11T00:48:51.043Z,99.90
2023-03-11T00:49:52.940Z,99.90
2023-03-11T00:50:54.770Z,99.90
2023-03-11T00:51:56.546Z,99.90
2023-03-11T00:52:59.565Z,99.90
2023-03-11T00:54:01.360Z,99.90
2023-03-11T00:55:03.296Z,99.90
2023-03-11T00:56:09.396Z,99.90
2023-03-11T00:57:11.078Z,99.90
2023-03-11T00:58:13.170Z,99.90
2023-03-11T00:59:14.883Z,99.90
2023-03-11T01:00:18.567Z,99.90
2023-03-11T01:01:20.963Z,99.90
2023-03-11T01:02:23.054Z,99.90
2023-03-11T01:03:24.755Z,99.90
2023-03-11T01:04:26.712Z,99.90
2023-03-11T01:05:31.226Z,99.90
2023-03-11T01:06:44.754Z,99.90
2023-03-11T01:07:47.710Z,99.90
2023-03-11T01:08:49.420Z,99.90
2023-03-11T01:09:51.125Z,99.90
2023-03-11T01:10:53.508Z,99.90
2023-03-11T01:11:55.322Z,99.90
2023-03-11T01:12:57.286Z,99.90
2023-03-11T01:13:59.869Z,99.90
2023-03-11T01:15:02.242Z,99.90
2023-03-11T01:16:04.215Z,99.90
2023-03-11T01:17:06.079Z,99.90
2023-03-11T01:18:07.884Z,99.90
2023-03-11T01:19:09.633Z,99.90
2023-03-11T01:20:12.468Z,99.90
2023-03-11T01:21:14.216Z,99.90
2023-03-11T01:22:16.379Z,99.90
2023-03-11T01:23:19.299Z,99.90
2023-03-11T01:24:21.060Z,99.90
2023-03-11T01:25:24.101Z,99.90
2023-03-11T01:26:25.884Z,99.90
2023-03-11T01:27:28.486Z,99.90
2023-03-11T01:28:30.269Z,99.90
2023-03-11T01:29:32.002Z,99.90
2023-03-11T01:30:35.395Z,99.90
2023-03-11T01:31:37.065Z,99.90
2023-03-11T01:32:39.470Z,99.90
2023-03-11T01:33:41.286Z,99.90
2023-03-11T01:34:42.992Z,99.90
2023-03-11T01:35:45.211Z,99.90
2023-03-11T01:36:46.966Z,99.90
2023-03-11T01:37:48.831Z,99.90
2023-03-11T01:38:50.588Z,99.90
2023-03-11T01:39:52.340Z,99.90
2023-03-11T01:40:54.060Z,99.90
2023-03-11T01:41:56.229Z,99.90
2023-03-11T01:42:59.272Z,99.90
2023-03-11T01:44:01.060Z,99.90
2023-03-11T01:45:02.901Z,99.90
2023-03-11T01:46:23.605Z,99.90
2023-03-11T01:47:39.673Z,99.90
2023-03-11T01:48:47.188Z,99.90
2023-03-11T01:49:49.196Z,99.90
2023-03-11T01:50:51.112Z,99.90
2023-03-11T01:51:57.126Z,99.90
2023-03-11T01:52:58.830Z,99.90
2023-03-11T01:54:05.499Z,99.90
2023-03-11T01:55:07.914Z,99.90
2023-03-11T01:56:10.141Z,99.90
2023-03-11T01:57:14.719Z,99.90
2023-03-11T01:58:20.541Z,99.90
2023-03-11T01:59:27.050Z,99.90
2023-03-11T02:00:28.737Z,99.90
2023-03-11T02:01:30.661Z,99.90
2023-03-11T02:02:41.977Z,99.90
2023-03-11T02:03:43.966Z,99.90
2023-03-11T02:04:46.216Z,99.90
2023-03-11T02:05:49.179Z,99.90
2023-03-11T02:06:54.089Z,99.90
2023-03-11T02:07:56.225Z,99.90
2023-03-11T02:08:59.726Z,99.90
2023-03-11T02:10:02.186Z,99.90
2023-03-11T02:11:06.828Z,99.90
2023-03-11T02:12:11.441Z,99.90
2023-03-11T02:13:13.307Z,99.90
2023-03-11T02:14:15.061Z,99.90
2023-03-11T02:15:16.806Z,99.90
2023-03-11T02:16:18.950Z,99.90
2023-03-11T02:17:22.250Z,99.90
2023-03-11T02:18:23.915Z,99.90
2023-03-11T02:19:34.319Z,99.90
2023-03-11T02:21:16.953Z,99.90
2023-03-11T02:22:18.943Z,99.90
2023-03-11T02:23:25.516Z,99.90
2023-03-11T02:24:55.160Z,99.90
2023-03-11T02:26:24.581Z,99.90
2023-03-11T02:27:28.182Z,99.90
2023-03-11T02:28:32.332Z,99.90
2023-03-11T02:29:35.052Z,99.90
2023-03-11T02:30:39.678Z,99.90
2023-03-11T02:31:43.250Z,99.90
2023-03-11T02:32:48.688Z,99.90
2023-03-11T02:33:54.573Z,99.90
2023-03-11T02:34:56.276Z,99.90
2023-03-11T02:35:58.183Z,99.90
2023-03-11T02:37:00.939Z,99.90
2023-03-11T02:38:02.721Z,99.90
2023-03-11T02:39:05.339Z,99.90
2023-03-11T02:40:35.728Z,99.90
2023-03-11T02:41:40.214Z,99.90
2023-03-11T02:42:42.169Z,99.90
2023-03-11T02:43:46.707Z,99.90
2023-03-11T02:44:58.671Z,99.90
2023-03-11T02:46:01.839Z,99.90
2023-03-11T02:47:04.109Z,99.90
2023-03-11T02:48:08.226Z,99.90
2023-03-11T02:49:10.248Z,99.90
2023-03-11T02:50:15.248Z,99.90
2023-03-11T02:51:16.993Z,99.90
2023-03-11T02:52:20.040Z,99.90
2023-03-11T02:53:21.801Z,99.90
2023-03-11T02:54:23.533Z,99.90
2023-03-11T02:55:25.329Z,99.90
2023-03-11T02:56:27.056Z,99.90
2023-03-11T02:57:28.815Z,99.90
2023-03-11T02:58:30.561Z,99.90
2023-03-11T02:59:32.414Z,99.90
2023-03-11T03:00:34.616Z,99.90
2023-03-11T03:01:37.446Z,99.90
2023-03-11T03:02:39.422Z,99.90
2023-03-11T03:03:41.119Z,99.90
2023-03-11T03:04:42.865Z,99.90
2023-03-11T03:05:44.609Z,99.90
2023-03-11T03:06:46.414Z,99.90
2023-03-11T03:07:49.523Z,99.90
2023-03-11T03:08:51.317Z,99.90
2023-03-11T03:09:53.087Z,99.90
2023-03-11T03:10:55.032Z,99.90
2023-03-11T03:11:56.769Z,99.90
2023-03-11T03:12:58.832Z,99.90
2023-03-11T03:14:00.632Z,99.90
2023-03-11T03:15:02.437Z,99.90
2023-03-11T03:16:04.788Z,99.90
2023-03-11T03:17:06.682Z,99.90
2023-03-11T03:18:08.499Z,99.90
2023-03-11T03:19:10.279Z,99.90
2023-03-11T03:20:14.046Z,99.90
2023-03-11T03:21:15.807Z,99.90
2023-03-11T03:22:17.593Z,99.90
2023-03-11T03:23:19.501Z,99.90
2023-03-11T03:24:21.251Z,99.90
2023-03-11T03:25:23.271Z,98.70
2023-03-11T03:26:25.009Z,99.90
2023-03-11T03:27:26.744Z,99.90
2023-03-11T03:28:28.706Z,99.90
2023-03-11T03:29:30.890Z,99.90
2023-03-11T03:30:32.657Z,99.90
2023-03-11T03:31:34.511Z,99.90
2023-03-11T03:32:36.723Z,99.90
2023-03-11T03:33:38.478Z,99.90
2023-03-11T03:34:40.210Z,99.90
2023-03-11T03:35:44.657Z,99.90
2023-03-11T03:36:46.558Z,99.90
2023-03-11T03:37:48.275Z,99.90
2023-03-11T03:38:55.226Z,99.90
2023-03-11T03:39:56.977Z,99.90
2023-03-11T03:40:58.644Z,99.90
2023-03-11T03:42:00.454Z,99.90
2023-03-11T03:43:02.355Z,99.90
2023-03-11T03:44:05.394Z,99.90
2023-03-11T03:45:08.990Z,99.90
2023-03-11T03:46:10.798Z,99.90
2023-03-11T03:47:12.650Z,99.90
2023-03-11T03:48:14.449Z,99.90
2023-03-11T03:49:16.161Z,99.90
2023-03-11T03:50:17.946Z,99.90
2023-03-11T03:51:19.677Z,99.90
2023-03-11T03:52:21.468Z,99.90
2023-03-11T03:53:23.235Z,99.90
2023-03-11T03:54:24.960Z,99.90
2023-03-11T03:55:26.715Z,99.90
2023-03-11T03:56:28.462Z,99.90
2023-03-11T03:57:30.494Z,99.90
2023-03-11T03:58:32.557Z,99.90
2023-03-11T03:59:34.374Z,99.90
2023-03-11T04:00:36.154Z,99.90
2023-03-11T04:01:37.882Z,99.90
2023-03-11T04:02:39.792Z,99.90
2023-03-11T04:03:41.989Z,99.90
2023-03-11T04:04:43.694Z,99.90
2023-03-11T04:05:45.350Z,99.90
2023-03-11T04:06:47.201Z,99.90
2023-03-11T04:07:48.909Z,99.90
2023-03-11T04:08:55.053Z,99.90
2023-03-11T04:09:56.846Z,99.90
2023-03-11T04:10:58.602Z,99.90
2023-03-11T04:12:00.298Z,99.90
2023-03-11T04:13:02.106Z,99.90
2023-03-11T04:14:04.841Z,99.90
2023-03-11T04:15:07.300Z,99.90
2023-03-11T04:16:12.338Z,99.90
2023-03-11T04:17:14.643Z,99.90
2023-03-11T04:18:16.312Z,99.90
2023-03-11T04:19:18.039Z,99.90
2023-03-11T04:20:20.028Z,99.90
2023-03-11T04:21:21.787Z,99.90
2023-03-11T04:22:23.575Z,99.90
2023-03-11T04:23:25.301Z,99.90
2023-03-11T04:24:27.016Z,99.90
2023-03-11T04:25:28.706Z,99.90
2023-03-11T04:26:30.858Z,99.90
2023-03-11T04:27:32.577Z,99.90
2023-03-11T04:28:34.359Z,99.90
2023-03-11T04:29:36.203Z,99.90
2023-03-11T04:30:38.239Z,99.90
2023-03-11T04:31:39.962Z,99.90
2023-03-11T04:32:41.969Z,99.90
2023-03-11T04:33:43.710Z,99.90
2023-03-11T04:34:45.533Z,99.90
2023-03-11T04:35:47.298Z,99.90
2023-03-11T04:36:52.686Z,99.90
2023-03-11T04:37:54.659Z,99.90
2023-03-11T04:38:57.652Z,99.90
2023-03-11T04:39:59.413Z,99.90
2023-03-11T04:41:05.860Z,99.90
2023-03-11T04:42:07.588Z,99.90
2023-03-11T04:43:09.384Z,99.90
2023-03-11T04:44:11.169Z,99.90
2023-03-11T04:45:13.346Z,99.90
2023-03-11T04:46:15.186Z,99.90
2023-03-11T04:47:16.961Z,99.90
2023-03-11T04:48:18.828Z,99.90
2023-03-11T04:49:20.563Z,99.90
2023-03-11T04:50:22.411Z,99.90
2023-03-11T04:51:24.106Z,99.90
2023-03-11T04:52:25.868Z,99.90
2023-03-11T04:53:27.562Z,99.90
2023-03-11T04:54:29.288Z,99.90
2023-03-11T04:55:30.986Z,99.90
2023-03-11T04:56:32.870Z,99.90
2023-03-11T04:57:34.924Z,99.90
2023-03-11T04:58:36.755Z,99.90
2023-03-11T04:59:38.448Z,99.90
2023-03-11T05:00:41.306Z,99.90
2023-03-11T05:01:43.054Z,99.90
2023-03-11T05:02:44.774Z,99.90
2023-03-11T05:03:46.525Z,99.90
2023-03-11T05:04:48.395Z,99.90
2023-03-11T05:05:50.250Z,99.90
2023-03-11T05:06:52.062Z,99.90
2023-03-11T05:07:53.840Z,99.90
2023-03-11T05:08:55.532Z,99.90
2023-03-11T05:09:57.309Z,99.90
2023-03-11T05:10:59.025Z,99.90
2023-03-11T05:12:01.701Z,99.90
2023-03-11T05:13:03.418Z,99.90
2023-03-11T05:14:05.215Z,99.90
2023-03-11T05:15:07.685Z,99.90
2023-03-11T05:16:09.381Z,99.90
2023-03-11T05:17:13.288Z,99.90
2023-03-11T05:18:15.601Z,99.90
2023-03-11T05:19:34.071Z,99.90
2023-03-11T05:20:37.274Z,99.90
2023-03-11T05:21:39.106Z,99.90
2023-03-11T05:22:40.992Z,99.90
2023-03-11T05:23:42.739Z,99.90
2023-03-11T05:24:44.471Z,99.90
2023-03-11T05:25:46.326Z,99.90
2023-03-11T05:26:48.632Z,99.90
2023-03-11T05:27:50.486Z,99.90
2023-03-11T05:28:52.168Z,99.90
2023-03-11T05:29:53.832Z,99.90
2023-03-11T05:30:55.605Z,99.90
2023-03-11T05:31:57.352Z,99.90
2023-03-11T05:32:59.588Z,99.90
2023-03-11T05:34:01.308Z,99.90
2023-03-11T05:35:03.148Z,99.90
2023-03-11T05:36:09.583Z,99.90
2023-03-11T05:37:11.691Z,99.90
2023-03-11T05:38:13.687Z,99.90
2023-03-11T05:39:15.479Z,99.90
2023-03-11T05:40:17.689Z,99.90
2023-03-11T05:41:19.805Z,99.90
2023-03-11T05:42:21.695Z,99.90
2023-03-11T05:43:23.499Z,99.90
2023-03-11T05:44:25.253Z,99.90
2023-03-11T05:45:27.217Z,99.90
2023-03-11T05:46:28.990Z,99.90
2023-03-11T05:47:30.785Z,99.90
2023-03-11T05:48:32.647Z,99.90
2023-03-11T05:49:34.367Z,99.90
2023-03-11T05:50:36.079Z,99.90
2023-03-11T05:51:38.153Z,99.90
2023-03-11T05:52:40.053Z,99.90
2023-03-11T05:53:49.455Z,99.90
2023-03-11T05:54:52.401Z,99.90
2023-03-11T05:55:58.687Z,99.90
2023-03-11T05:57:00.452Z,99.90
2023-03-11T05:58:02.181Z,99.90
2023-03-11T05:59:03.938Z,99.90
2023-03-11T06:00:11.805Z,99.90
2023-03-11T06:01:16.455Z,99.90
2023-03-11T06:02:18.179Z,99.90
2023-03-11T06:03:19.967Z,99.90
2023-03-11T06:04:21.922Z,99.90
2023-03-11T06:05:23.765Z,99.90
2023-03-11T06:06:25.991Z,99.90
2023-03-11T06:07:27.708Z,99.90
2023-03-11T06:08:30.766Z,99.90
2023-03-11T06:09:32.562Z,99.90
2023-03-11T06:10:34.355Z,99.90
2023-03-11T06:11:36.076Z,99.90
2023-03-11T06:12:38.656Z,99.90
2023-03-11T06:13:40.456Z,99.90
2023-03-11T06:14:42.162Z,99.90
2023-03-11T06:15:44.944Z,99.90
2023-03-11T06:16:46.749Z,99.90
2023-03-11T06:17:48.479Z,99.90
2023-03-11T06:18:50.289Z,99.90
2023-03-11T06:19:52.247Z,99.90
2023-03-11T06:20:55.047Z,99.90
2023-03-11T06:21:56.901Z,99.90
2023-03-11T06:22:58.595Z,99.90
2023-03-11T06:24:00.267Z,99.90
2023-03-11T06:25:02.066Z,99.90
2023-03-11T06:26:05.758Z,99.90
2023-03-11T06:27:09.306Z,99.90
2023-03-11T06:28:11.207Z,99.90
2023-03-11T06:29:14.708Z,99.90
2023-03-11T06:30:16.809Z,99.90
2023-03-11T06:31:27.087Z,99.90
2023-03-11T06:32:29.736Z,99.90
2023-03-11T06:33:31.642Z,99.90
2023-03-11T06:34:33.404Z,99.90
2023-03-11T06:35:35.257Z,99.90
2023-03-11T06:36:37.809Z,99.90
2023-03-11T06:37:40.197Z,99.90
2023-03-11T06:38:43.193Z,99.90
2023-03-11T06:39:44.942Z,99.90
2023-03-11T06:40:46.666Z,99.90
2023-03-11T06:41:48.390Z,99.90
2023-03-11T06:42:50.150Z,99.90
2023-03-11T06:43:51.898Z,99.90
2023-03-11T06:44:53.571Z,99.90
2023-03-11T06:45:55.450Z,99.90
2023-03-11T06:46:57.173Z,99.90
2023-03-11T06:47:58.945Z,99.90
2023-03-11T06:49:00.632Z,99.90
2023-03-11T06:50:06.594Z,99.90
2023-03-11T06:51:09.862Z,99.90
2023-03-11T06:52:11.735Z,99.90
2023-03-11T06:53:13.442Z,99.90
2023-03-11T06:54:15.230Z,99.90
2023-03-11T06:55:17.094Z,99.90
2023-03-11T06:56:20.118Z,99.90
2023-03-11T06:57:21.862Z,99.90
2023-03-11T06:58:23.591Z,99.90
2023-03-11T06:59:25.403Z,99.90
2023-03-11T07:00:27.940Z,99.90
2023-03-11T07:01:29.680Z,99.90
2023-03-11T07:02:31.416Z,99.90
2023-03-11T07:03:33.293Z,99.90
2023-03-11T07:04:35.564Z,99.90
2023-03-11T07:05:37.281Z,99.90
2023-03-11T07:06:39.057Z,99.90
2023-03-11T07:07:40.765Z,99.90
2023-03-11T07:08:42.524Z,99.90
2023-03-11T07:09:44.590Z,99.90
2023-03-11T07:10:46.766Z,99.90
2023-03-11T07:11:49.120Z,99.90
2023-03-11T07:12:50.802Z,99.90
2023-03-11T07:13:54.559Z,99.90
2023-03-11T07:14:57.681Z,99.90
2023-03-11T07:16:11.735Z,99.90
2023-03-11T07:17:13.532Z,99.90
2023-03-11T07:18:15.242Z,99.90
2023-03-11T07:19:17.685Z,99.90
2023-03-11T07:20:20.140Z,99.90
2023-03-11T07:21:23.246Z,99.90
2023-03-11T07:22:24.972Z,99.90
2023-03-11T07:23:26.646Z,99.90
2023-03-11T07:24:28.389Z,99.90
2023-03-11T07:25:30.136Z,99.90
2023-03-11T07:26:33.897Z,99.90
2023-03-11T07:27:35.669Z,99.90
2023-03-11T07:28:37.599Z,99.90
2023-03-11T07:29:39.412Z,99.90
2023-03-11T07:30:41.520Z,99.90
2023-03-11T07:31:43.402Z,99.90
2023-03-11T07:32:45.206Z,99.90
2023-03-11T07:33:47.352Z,99.90
2023-03-11T07:34:49.112Z,99.90
2023-03-11T07:35:51.415Z,99.90
2023-03-11T07:36:53.166Z,99.90
2023-03-11T07:37:56.131Z,99.90
2023-03-11T07:39:04.708Z,99.90
2023-03-11T07:40:07.124Z,99.90
2023-03-11T07:41:11.274Z,99.90
2023-03-11T07:42:13.050Z,99.90
2023-03-11T07:43:15.142Z,99.90
2023-03-11T07:44:18.343Z,99.90
2023-03-11T07:45:20.214Z,99.90
2023-03-11T07:46:23.901Z,99.90
2023-03-11T07:47:25.684Z,99.60
2023-03-11T07:48:27.450Z,99.90
2023-03-11T07:49:29.523Z,98.40
2023-03-11T07:50:31.246Z,95.80
2023-03-11T07:51:34.494Z,98.40
2023-03-11T07:52:36.423Z,97.90
2023-03-11T07:53:40.520Z,96.80
2023-03-11T07:54:42.215Z,98.30
2023-03-11T07:55:43.896Z,99.90
2023-03-11T07:56:45.642Z,96.80
2023-03-11T07:57:49.233Z,95.20
2023-03-11T07:58:51.515Z,95.80
2023-03-11T07:59:53.208Z,94.90
2023-03-11T08:00:56.857Z,95.90
2023-03-11T08:01:58.586Z,93.80
2023-03-11T08:03:01.103Z,91.90
2023-03-11T08:04:07.485Z,92.30
2023-03-11T08:05:09.704Z,93.00
2023-03-11T08:06:20.578Z,92.90
2023-03-11T08:07:22.326Z,91.80
2023-03-11T08:08:24.065Z,92.90
2023-03-11T08:09:25.771Z,94.00
2023-03-11T08:10:27.555Z,92.50
2023-03-11T08:11:31.317Z,95.70
2023-03-11T08:12:33.152Z,92.20
2023-03-11T08:13:35.400Z,92.10
2023-03-11T08:14:37.720Z,91.30
2023-03-11T08:15:39.874Z,92.40
2023-03-11T08:16:41.719Z,92.00
2023-03-11T08:17:43.430Z,95.50
2023-03-11T08:18:47.012Z,96.50
2023-03-11T08:19:50.044Z,91.90
2023-03-11T08:20:51.828Z,94.00
2023-03-11T08:21:53.534Z,94.30
2023-03-11T08:22:58.272Z,94.00
2023-03-11T08:24:02.990Z,95.80
2023-03-11T08:25:06.471Z,95.50
2023-03-11T08:26:10.608Z,90.70
2023-03-11T08:27:12.414Z,89.90
2023-03-11T08:28:14.146Z,92.00
2023-03-11T08:29:15.918Z,90.90
2023-03-11T08:30:18.029Z,92.60
2023-03-11T08:31:24.169Z,91.20
2023-03-11T08:32:26.063Z,92.70
2023-03-11T08:33:27.890Z,94.20
2023-03-11T08:34:29.738Z,95.10
2023-03-11T08:35:32.429Z,91.80
2023-03-11T08:36:34.774Z,91.70
2023-03-11T08:37:36.579Z,93.80
2023-03-11T08:38:38.641Z,91.70
2023-03-11T08:39:40.518Z,94.40
2023-03-11T08:40:42.247Z,95.20
2023-03-11T08:41:44.036Z,93.50
2023-03-11T08:42:45.864Z,93.90
2023-03-11T08:43:47.712Z,91.00
2023-03-11T08:44:50.540Z,90.80
2023-03-11T08:45:52.539Z,91.60
2023-03-11T08:46:54.436Z,91.40
2023-03-11T08:47:56.269Z,91.10
2023-03-11T08:49:00.902Z,92.40
2023-03-11T08:50:06.168Z,91.40
2023-03-11T08:51:12.678Z,93.80
2023-03-11T08:52:14.388Z,88.10
2023-03-11T08:53:16.092Z,93.60
2023-03-11T08:54:17.928Z,90.10
2023-03-11T08:55:25.113Z,90.20
2023-03-11T08:56:26.978Z,87.10
2023-03-11T08:57:29.058Z,90.60
2023-03-11T08:58:30.813Z,90.40
2023-03-11T08:59:32.487Z,88.60
2023-03-11T09:00:34.283Z,92.10
2023-03-11T09:01:36.004Z,92.60
2023-03-11T09:02:37.778Z,90.30
2023-03-11T09:03:40.305Z,88.00
2023-03-11T09:04:42.137Z,90.40
2023-03-11T09:05:43.919Z,89.90
2023-03-11T09:06:45.827Z,92.10
2023-03-11T09:07:47.852Z,91.40
2023-03-11T09:08:49.827Z,91.20
2023-03-11T09:09:51.523Z,90.70
2023-03-11T09:10:54.562Z,90.50
2023-03-11T09:11:56.562Z,91.20
2023-03-11T09:12:58.270Z,91.90
2023-03-11T09:14:00.105Z,90.20
2023-03-11T09:15:01.920Z,90.10
2023-03-11T09:16:05.862Z,90.20
2023-03-11T09:17:08.826Z,94.20
2023-03-11T09:18:14.469Z,90.60
2023-03-11T09:19:16.221Z,92.40
2023-03-11T09:20:18.178Z,91.90
2023-03-11T09:21:20.793Z,90.60
2023-03-11T09:22:22.762Z,86.40
2023-03-11T09:23:24.583Z,86.10
2023-03-11T09:24:26.498Z,86.10
2023-03-11T09:25:28.418Z,87.00
2023-03-11T09:26:31.504Z,84.50
2023-03-11T09:27:33.273Z,83.10
2023-03-11T09:28:35.028Z,84.10
2023-03-11T09:29:36.874Z,82.90
2023-03-11T09:30:38.736Z,90.00
2023-03-11T09:31:40.454Z,90.50
2023-03-11T09:32:42.208Z,85.50
2023-03-11T09:33:44.454Z,87.10
2023-03-11T09:34:46.138Z,85.60
2023-03-11T09:35:48.544Z,88.90
2023-03-11T09:36:50.464Z,90.20
2023-03-11T09:37:52.204Z,83.20
2023-03-11T09:38:53.919Z,88.60
2023-03-11T09:39:55.655Z,87.80
2023-03-11T09:41:19.126Z,83.20
2023-03-11T09:42:42.163Z,82.00
2023-03-11T09:44:02.966Z,88.40
2023-03-11T09:45:15.622Z,83.10
2023-03-11T09:46:26.250Z,78.40
2023-03-11T09:47:39.160Z,80.50
2023-03-11T09:48:49.467Z,80.80
2023-03-11T09:49:51.134Z,81.60
2023-03-11T09:51:09.074Z,85.50
2023-03-11T09:52:16.868Z,82.40
2023-03-11T09:53:43.116Z,82.80
2023-03-11T09:54:56.131Z,82.00
2023-03-11T09:56:00.041Z,78.40
2023-03-11T09:57:03.305Z,78.20
2023-03-11T09:58:12.646Z,81.70
2023-03-11T09:59:30.289Z,82.00
2023-03-11T10:00:32.549Z,79.40
2023-03-11T10:01:37.627Z,77.40
2023-03-11T10:02:40.657Z,82.10
2023-03-11T10:03:44.288Z,85.20
2023-03-11T10:05:06.502Z,81.10
2023-03-11T10:06:26.609Z,81.30
2023-03-11T10:07:34.070Z,82.50
2023-03-11T10:09:03.106Z,83.00
2023-03-11T10:10:05.834Z,78.40
2023-03-11T10:11:22.803Z,77.10
2023-03-11T10:12:48.446Z,77.10
2023-03-11T10:14:13.253Z,75.20
2023-03-11T10:15:42.093Z,75.70
2023-03-11T10:17:07.722Z,77.00
2023-03-11T10:18:25.022Z,79.60
2023-03-11T10:19:38.530Z,76.80
2023-03-11T10:20:46.162Z,76.20
2023-03-11T10:22:13.562Z,76.50
2023-03-11T10:23:26.091Z,74.90
2023-03-11T10:24:58.452Z,82.80
2023-03-11T10:26:38.913Z,78.30
2023-03-11T10:28:10.966Z,75.50
2023-03-11T10:29:28.961Z,77.00
2023-03-11T10:30:52.541Z,76.70
2023-03-11T10:32:39.631Z,77.00
2023-03-11T10:33:50.119Z,75.40
2023-03-11T10:34:54.610Z,72.10
2023-03-11T10:36:00.405Z,73.20
2023-03-11T10:37:48.884Z,72.70
2023-03-11T10:38:53.373Z,70.60
2023-03-11T10:39:57.541Z,71.50
2023-03-11T10:41:05.215Z,73.70
2023-03-11T10:42:13.207Z,69.30
2023-03-11T10:43:19.239Z,68.00
2023-03-11T10:44:32.667Z,67.80
2023-03-11T10:45:41.359Z,65.70
2023-03-11T10:46:43.180Z,67.60
2023-03-11T10:47:44.938Z,67.00
2023-03-11T10:48:46.791Z,64.80
2023-03-11T10:49:49.169Z,65.90
2023-03-11T10:51:31.245Z,67.30
2023-03-11T10:52:43.984Z,66.90
2023-03-11T10:53:56.316Z,65.90
2023-03-11T10:55:02.858Z,63.80
2023-03-11T10:56:04.877Z,65.50
2023-03-11T10:57:25.515Z,65.40
2023-03-11T10:58:30.948Z,66.90
2023-03-11T10:59:54.133Z,67.00
2023-03-11T11:01:14.982Z,63.50
2023-03-11T11:02:48.722Z,66.00
2023-03-11T11:03:55.383Z,66.20
2023-03-11T11:05:06.349Z,64.80
2023-03-11T11:06:18.733Z,65.80
2023-03-11T11:07:41.119Z,65.60
2023-03-11T11:08:42.872Z,65.50
2023-03-11T11:09:44.770Z,62.80
2023-03-11T11:10:53.806Z,60.10
2023-03-11T11:12:03.570Z,61.30
2023-03-11T11:13:14.228Z,60.00
2023-03-11T11:14:15.900Z,60.00
2023-03-11T11:15:36.286Z,61.60
2023-03-11T11:16:38.170Z,61.90
2023-03-11T11:17:40.332Z,61.40
2023-03-11T11:18:49.363Z,61.90
2023-03-11T11:19:52.883Z,61.90
2023-03-11T11:21:00.912Z,60.60
2023-03-11T11:22:06.299Z,61.10
2023-03-11T11:23:27.192Z,60.20
2023-03-11T11:24:31.177Z,58.90
2023-03-11T11:25:38.247Z,60.90
2023-03-11T11:26:40.044Z,61.20
2023-03-11T11:27:58.145Z,58.50
2023-03-11T11:29:12.479Z,58.50
2023-03-11T11:30:17.115Z,59.60
2023-03-11T11:31:26.644Z,59.10
2023-03-11T11:32:29.207Z,58.70
2023-03-11T11:33:48.900Z,59.30
2023-03-11T11:34:53.694Z,59.10
2023-03-11T11:35:58.819Z,59.40
2023-03-11T11:37:05.800Z,60.60
2023-03-11T11:38:10.516Z,58.90
2023-03-11T11:39:18.921Z,59.40
2023-03-11T11:40:29.800Z,59.00
2023-03-11T11:41:36.501Z,59.20
2023-03-11T11:42:41.341Z,60.10
2023-03-11T11:44:03.554Z,63.20
2023-03-11T11:45:21.443Z,61.30
2023-03-11T11:46:27.407Z,60.10
2023-03-11T11:47:34.870Z,59.80
2023-03-11T11:48:50.052Z,60.70
2023-03-11T11:50:01.786Z,61.60
2023-03-11T11:51:15.361Z,64.70
2023-03-11T11:52:22.827Z,62.50
2023-03-11T11:53:46.683Z,65.00
2023-03-11T11:54:59.146Z,65.10
2023-03-11T11:56:01.938Z,63.90
2023-03-11T11:57:11.777Z,62.80
2023-03-11T11:58:13.565Z,61.60
2023-03-11T11:59:21.711Z,61.50
2023-03-11T12:00:45.293Z,60.20
2023-03-11T12:02:18.306Z,58.80
2023-03-11T12:03:44.636Z,60.90
2023-03-11T12:04:56.100Z,60.30
2023-03-11T12:06:00.773Z,60.20
2023-03-11T12:07:18.501Z,60.70
2023-03-11T12:08:45.846Z,61.10
2023-03-11T12:10:23.654Z,62.20
2023-03-11T12:11:36.653Z,64.10
2023-03-11T12:13:16.082Z,61.90
2023-03-11T12:14:18.171Z,58.50
2023-03-11T12:16:03.060Z,58.00
2023-03-11T12:17:05.581Z,62.50
2023-03-11T12:18:17.632Z,61.20
2023-03-11T12:19:39.668Z,59.40
2023-03-11T12:20:53.783Z,64.20
2023-03-11T12:22:17.171Z,58.30
2023-03-11T12:23:28.704Z,56.60
2023-03-11T12:24:52.002Z,55.10
2023-03-11T12:26:11.809Z,55.60
2023-03-11T12:27:23.176Z,54.20
2023-03-11T12:28:50.057Z,57.70
2023-03-11T12:30:12.706Z,54.70
2023-03-11T12:31:14.748Z,54.40
2023-03-11T12:32:29.456Z,54.90
2023-03-11T12:33:38.346Z,54.90
2023-03-11T12:34:40.136Z,56.90
2023-03-11T12:35:53.926Z,55.50
2023-03-11T12:37:00.196Z,54.10
2023-03-11T12:38:04.960Z,56.30
2023-03-11T12:39:20.074Z,56.50
2023-03-11T12:40:46.642Z,56.80
2023-03-11T12:41:48.810Z,55.00
2023-03-11T12:42:50.566Z,54.40
2023-03-11T12:43:52.289Z,55.20
2023-03-11T12:44:54.004Z,57.10
2023-03-11T12:45:59.385Z,58.00
2023-03-11T12:47:24.051Z,58.60
2023-03-11T12:48:40.994Z,58.30
2023-03-11T12:49:48.807Z,60.30
2023-03-11T12:50:50.857Z,59.80
2023-03-11T12:52:11.545Z,57.10
2023-03-11T12:53:17.919Z,56.80
2023-03-11T12:54:37.297Z,57.50
2023-03-11T12:55:39.901Z,58.00
2023-03-11T12:56:45.383Z,56.50
2023-03-11T12:57:47.059Z,57.90
2023-03-11T12:59:36.025Z,56.10
2023-03-11T13:00:57.888Z,55.50
2023-03-11T13:02:20.698Z,57.40
2023-03-11T13:03:46.550Z,56.00
2023-03-11T13:04:56.451Z,56.70
2023-03-11T13:06:29.268Z,56.80
2023-03-11T13:07:47.280Z,54.90
2023-03-11T13:08:52.066Z,54.60
2023-03-11T13:10:03.270Z,55.20
2023-03-11T13:11:34.158Z,55.30
2023-03-11T13:12:40.168Z,53.90
2023-03-11T13:13:42.822Z,55.30
2023-03-11T13:14:44.776Z,54.10
2023-03-11T13:15:46.512Z,55.50
2023-03-11T13:16:48.650Z,57.30
2023-03-11T13:18:12.830Z,57.60
2023-03-11T13:19:46.462Z,53.80
2023-03-11T13:20:50.687Z,57.20
2023-03-11T13:21:59.480Z,54.70
2023-03-11T13:23:01.161Z,56.30
2023-03-11T13:24:31.730Z,54.10
2023-03-11T13:25:40.722Z,54.30
2023-03-11T13:27:09.011Z,53.50
2023-03-11T13:28:39.210Z,54.10
2023-03-11T13:29:52.904Z,52.60
2023-03-11T13:31:04.937Z,53.90
2023-03-11T13:32:21.711Z,50.50
2023-03-11T13:33:36.737Z,51.70
2023-03-11T13:35:02.712Z,51.50
2023-03-11T13:36:35.145Z,52.90
2023-03-11T13:38:10.664Z,50.60
2023-03-11T13:39:34.300Z,51.00
2023-03-11T13:40:39.889Z,50.00
2023-03-11T13:41:44.671Z,50.60
2023-03-11T13:42:51.753Z,49.30
2023-03-11T13:43:57.744Z,50.00
2023-03-11T13:45:00.013Z,50.60
2023-03-11T13:46:06.968Z,50.30
2023-03-11T13:47:16.658Z,51.00
2023-03-11T13:48:30.151Z,52.00
2023-03-11T13:50:01.048Z,51.30
2023-03-11T13:51:13.576Z,54.00
2023-03-11T13:52:29.036Z,53.10
2023-03-11T13:54:02.850Z,54.10
2023-03-11T13:55:16.633Z,52.90
2023-03-11T13:56:31.468Z,52.10
2023-03-11T13:57:36.145Z,50.60
2023-03-11T13:58:37.941Z,51.10
2023-03-11T13:59:39.617Z,51.50
2023-03-11T14:00:48.874Z,51.60
2023-03-11T14:01:56.614Z,51.60
2023-03-11T14:03:02.742Z,51.90
2023-03-11T14:04:11.383Z,51.90
2023-03-11T14:05:20.008Z,51.50
2023-03-11T14:06:22.213Z,51.20
2023-03-11T14:07:28.906Z,52.70
2023-03-11T14:08:35.784Z,51.10